Hills, South Dakota
Current Conditions -  °F | °C
As of 2:52 PM on Wednesday 17 Dec 2014 (Local Time) from KMBG Reporting Station
Clear Clear  
Wind Chill:   Ceiling: Unl
Heat Index: 20°   Visibility: 10mi
Dew Point: 11°   Wind: 12mph
Humidity: 68%   Direction: 160°SSE
Pressure: 30.16"   Gusts: NA
Location:  45.7737°N, 99.5895°W
Report Text: KMBG 172052Z AUTO 16010KT 10SM CLR M07/M12 A3016 RMK AO2 SLP243 T10671117 56022
Loading
Personal Weather Stations






























Interactive Weather Map New forecast layout! Learn more

10-Day Weather Forecast

Advertisements
Track Severe Weather on mobile